Terminal Aerodrome Forecast
Issued by NWS Quad Cities IA IL

Home | Current Version | Previous Version | Text Only | Print | Product List | Glossary On
Versions: 1 2 3 4 5 6 7 8 9 10 11 12 13 14 15 16 17 18 19
000
FTUS43 KDVN 151400 AAA
TAFMLI
TAF AMD
KMLI 151428Z 1514/1612 09004KT P6SM VCSH BKN050
     FM151500 03004KT P6SM SCT080
     FM151730 34009KT P6SM VCSH OVC025
      TEMPO 1518/1520 -SHRA
     FM152100 36012KT P6SM BKN040
     FM160100 34003KT P6SM SCT250=

USA.gov is the U.S. government's official web portal to all federal, state and local government web resources and services.